Time;durP1;ratioP1;P1;durP2;ratioP2;P2;SDS_P1;SDS_P2;PMS_P1;PMS_P2;Temp;Humidity;BMP_temperature;BMP_pressure;BME280_temperature;BME280_humidity;BME280_pressure;Samples;Min_cycle;Max_cycle;Signal;HPM_P1;HPM_P2
2023/11/14 00:00:14;;;;;;;4.93;2.22;;;;;;;11.41;72.80;97888.75;5004790;27;102806;-69
2023/11/14 00:02:43;;;;;;;5.43;2.45;;;;;;;11.41;73.17;97894.06;5017912;27;103945;-69
2023/11/14 00:05:12;;;;;;;8.45;2.72;;;;;;;11.41;72.43;97903.84;5002301;27;104321;-69
2023/11/14 00:07:42;;;;;;;10.18;2.92;;;;;;;11.33;72.02;97896.88;5020965;27;103288;-69
2023/11/14 00:10:11;;;;;;;9.68;3.10;;;;;;;11.39;72.37;97896.06;5019006;27;102578;-69
2023/11/14 00:12:40;;;;;;;13.70;3.13;;;;;;;11.40;72.16;97892.41;5019767;27;102729;-69
2023/11/14 00:15:10;;;;;;;11.80;3.00;;;;;;;11.42;71.56;97894.88;5017990;27;104479;-69
2023/11/14 00:17:39;;;;;;;12.18;3.47;;;;;;;11.40;72.48;97886.31;5021501;27;103229;-69
2023/11/14 00:20:09;;;;;;;10.85;3.53;;;;;;;11.35;71.43;97889.53;5016271;27;102644;-69
2023/11/14 00:22:38;;;;;;;7.68;2.40;;;;;;;11.34;71.78;97877.28;5017460;27;102788;-69
2023/11/14 00:25:10;;;;;;;8.30;3.20;;;;;;;11.36;70.18;97885.88;5023148;27;103211;-69
2023/11/14 00:27:39;;;;;;;8.63;2.80;;;;;;;11.32;69.12;97894.38;5021889;27;103333;-69
2023/11/14 00:30:10;;;;;;;7.82;2.60;;;;;;;11.30;69.43;97896.44;5016487;27;103353;-69
2023/11/14 00:32:38;;;;;;;12.27;2.80;;;;;;;11.31;69.58;97888.28;5004370;27;102659;-69
2023/11/14 00:35:07;;;;;;;12.02;3.15;;;;;;;11.30;69.05;97886.63;5002275;27;104138;-69
2023/11/14 00:37:36;;;;;;;6.82;2.20;;;;;;;11.21;69.04;97888.59;5009830;27;103243;-69
2023/11/14 00:40:06;;;;;;;12.35;3.45;;;;;;;11.27;69.31;97889.69;5003094;28;102759;-70
2023/11/14 00:42:36;;;;;;;7.05;2.60;;;;;;;11.24;69.31;97890.88;5019074;27;103184;-69
2023/11/14 00:45:04;;;;;;;4.88;2.28;;;;;;;11.19;69.28;97900.44;5000287;27;104028;-69
2023/11/14 00:47:33;;;;;;;5.60;2.15;;;;;;;11.23;70.02;97909.63;5011983;27;103195;-69
2023/11/14 00:50:02;;;;;;;6.72;2.70;;;;;;;11.19;69.87;97916.34;5015551;27;103771;-70
2023/11/14 00:52:31;;;;;;;7.07;2.50;;;;;;;11.17;69.59;97910.38;5009382;27;103112;-69
2023/11/14 00:55:00;;;;;;;9.18;3.58;;;;;;;11.14;69.22;97914.25;5001409;27;103480;-69
2023/11/14 00:57:28;;;;;;;12.00;3.35;;;;;;;11.02;69.56;97921.06;5007482;28;103271;-69
2023/11/14 00:59:58;;;;;;;6.90;2.83;;;;;;;11.01;69.94;97920.25;5021553;27;103879;-69
2023/11/14 01:02:27;;;;;;;13.68;4.43;;;;;;;10.99;70.27;97910.84;5004093;27;103684;-69
2023/11/14 01:04:57;;;;;;;9.02;3.17;;;;;;;10.99;70.06;97905.53;5002128;28;103733;-69
2023/11/14 01:07:27;;;;;;;7.68;2.47;;;;;;;10.97;70.35;97913.69;5006397;27;103053;-69
2023/11/14 01:09:55;;;;;;;8.60;2.35;;;;;;;10.95;70.57;97913.03;5014492;27;102635;-70
2023/11/14 01:12:25;;;;;;;7.75;2.38;;;;;;;10.81;71.35;97921.88;5021752;27;104332;-69
2023/11/14 01:14:54;;;;;;;5.88;1.95;;;;;;;10.87;71.20;97924.63;5009421;28;103210;-69
2023/11/14 01:17:24;;;;;;;9.15;2.55;;;;;;;10.82;70.94;97934.13;5016698;27;103020;-70
2023/11/14 01:19:54;;;;;;;8.85;2.47;;;;;;;10.85;71.20;97931.09;5000033;28;102762;-70
2023/11/14 01:22:23;;;;;;;5.82;2.67;;;;;;;10.73;71.30;97931.59;5007528;27;104871;-70
2023/11/14 01:24:51;;;;;;;8.50;2.38;;;;;;;10.68;70.79;97946.41;5007410;27;104316;-70
2023/11/14 01:27:20;;;;;;;8.40;2.75;;;;;;;10.67;71.08;97944.75;5004431;27;103076;-70
2023/11/14 01:29:50;;;;;;;12.95;3.15;;;;;;;10.69;70.77;97948.88;5016956;27;102680;-70
2023/11/14 01:32:18;;;;;;;10.18;2.72;;;;;;;10.69;70.77;97951.53;5020058;27;103766;-70
2023/11/14 01:34:48;;;;;;;8.18;2.95;;;;;;;10.73;70.55;97966.03;5025005;27;104098;-69
2023/11/14 01:37:17;;;;;;;5.95;2.35;;;;;;;10.70;70.94;97960.28;5009029;27;103213;-70
2023/11/14 01:39:46;;;;;;;5.97;2.65;;;;;;;10.70;70.57;97954.97;5019293;27;102784;-68
2023/11/14 01:42:14;;;;;;;7.43;3.38;;;;;;;10.71;70.53;97954.78;5019631;27;102945;-70
2023/11/14 01:44:43;;;;;;;8.98;2.97;;;;;;;10.67;70.80;97963.31;5002797;28;103216;-70
2023/11/14 01:47:12;;;;;;;8.32;2.85;;;;;;;10.65;70.94;97955.56;5016510;27;103146;-70
2023/11/14 01:49:41;;;;;;;8.63;2.80;;;;;;;10.60;70.49;97956.09;5018162;27;102716;-68
2023/11/14 01:52:11;;;;;;;5.95;2.53;;;;;;;10.71;70.43;97946.03;5002608;27;103732;-68
2023/11/14 01:54:40;;;;;;;10.85;3.67;;;;;;;10.65;70.88;97958.19;5017113;27;103422;-68
2023/11/14 01:57:12;;;;;;;12.63;3.53;;;;;;;10.69;70.90;97963.91;5016482;27;103369;-68
2023/11/14 01:59:41;;;;;;;7.65;2.70;;;;;;;10.61;71.17;97983.38;5009458;27;103062;-69
2023/11/14 02:02:13;;;;;;;9.52;2.50;;;;;;;10.59;71.07;97985.41;4999495;27;102782;-69
2023/11/14 02:04:42;;;;;;;13.18;3.22;;;;;;;10.55;71.47;97977.00;5018203;27;103138;-68
2023/11/14 02:07:13;;;;;;;13.38;2.72;;;;;;;10.60;71.33;97966.69;5003437;27;103195;-68
2023/11/14 02:09:42;;;;;;;9.65;2.90;;;;;;;10.64;71.42;97966.31;5015855;27;103121;-68
2023/11/14 02:12:11;;;;;;;6.05;2.78;;;;;;;10.52;71.55;97947.44;5015253;27;102838;-68
2023/11/14 02:14:39;;;;;;;12.23;3.15;;;;;;;10.44;71.75;97958.94;4999747;27;103319;-68
2023/11/14 02:17:14;;;;;;;12.48;3.38;;;;;;;10.52;71.77;97960.69;5019744;27;103202;-68
2023/11/14 02:19:43;;;;;;;11.05;2.35;;;;;;;10.54;71.68;97959.47;5005867;27;103153;-68
2023/11/14 02:22:13;;;;;;;8.05;2.63;;;;;;;10.52;72.08;97947.44;5002908;27;103696;-68
2023/11/14 02:24:49;;;;;;;6.88;2.72;;;;;;;10.51;71.64;97956.41;5017449;27;103424;-68
2023/11/14 02:27:20;;;;;;;7.40;3.03;;;;;;;10.53;71.95;97971.09;5019070;27;103050;-68
2023/11/14 02:29:50;;;;;;;8.73;2.72;;;;;;;10.42;71.95;97969.72;5004716;28;102768;-68
2023/11/14 02:32:18;;;;;;;11.02;3.13;;;;;;;10.38;72.12;97970.31;5010276;27;102627;-68
2023/11/14 02:34:46;;;;;;;9.80;3.10;;;;;;;10.45;72.11;97976.47;5007346;27;103213;-68
2023/11/14 02:37:15;;;;;;;8.02;2.20;;;;;;;10.46;72.05;97980.78;5005026;27;103437;-69
2023/11/14 02:39:43;;;;;;;7.25;2.67;;;;;;;10.41;72.11;97969.91;5003470;27;102758;-68
2023/11/14 02:42:13;;;;;;;7.65;3.80;;;;;;;10.44;71.79;97962.44;5004057;27;102712;-68
2023/11/14 02:44:41;;;;;;;11.88;3.50;;;;;;;10.44;71.63;97965.09;4999254;27;103294;-68
2023/11/14 02:47:09;;;;;;;7.80;2.45;;;;;;;10.37;72.06;97960.72;4998269;27;103261;-68
2023/11/14 02:49:51;;;;;;;11.63;4.00;;;;;;;10.42;71.93;97958.34;5016244;27;102560;-68
2023/11/14 02:52:19;;;;;;;7.15;2.70;;;;;;;10.39;71.76;97959.53;5001992;27;102979;-68
2023/11/14 02:54:47;;;;;;;8.95;2.67;;;;;;;10.41;71.94;97960.13;5003233;27;103039;-68
2023/11/14 02:57:18;;;;;;;10.93;3.22;;;;;;;10.44;71.67;97946.56;5002845;28;103286;-68
2023/11/14 02:59:48;;;;;;;9.25;2.97;;;;;;;10.41;71.73;97946.91;5019871;27;102678;-68
2023/11/14 03:02:16;;;;;;;10.65;3.10;;;;;;;10.44;71.74;97941.25;5000071;28;103122;-68
2023/11/14 03:04:44;;;;;;;17.63;2.88;;;;;;;10.39;71.65;97942.84;5004959;27;103344;-68
2023/11/14 03:07:13;;;;;;;7.70;2.75;;;;;;;10.36;71.89;97956.41;5001556;27;104006;-69
2023/11/14 03:09:42;;;;;;;7.28;2.72;;;;;;;10.36;71.97;97962.56;5014392;27;102787;-68
2023/11/14 03:12:10;;;;;;;7.57;2.83;;;;;;;10.40;71.98;97977.06;5023089;27;102830;-69
2023/11/14 03:14:40;;;;;;;11.15;3.03;;;;;;;10.40;71.72;97985.00;5001331;27;104584;-68
2023/11/14 03:17:08;;;;;;;7.63;2.55;;;;;;;10.36;72.60;97986.38;5008151;27;103136;-69
2023/11/14 03:19:40;;;;;;;9.60;2.67;;;;;;;10.39;71.98;98003.72;5003073;27;102736;-69
2023/11/14 03:22:10;;;;;;;9.95;3.13;;;;;;;10.35;71.95;97997.97;5022817;27;102779;-69
2023/11/14 03:24:39;;;;;;;7.35;2.78;;;;;;;10.36;72.08;98002.25;4999108;27;103958;-69
2023/11/14 03:27:08;;;;;;;7.97;2.25;;;;;;;10.38;71.94;98010.81;5018164;27;104370;-69
2023/11/14 03:29:36;;;;;;;5.65;2.92;;;;;;;10.42;71.83;98011.28;5019369;27;103045;-69
2023/11/14 03:32:06;;;;;;;8.50;2.63;;;;;;;10.40;71.84;98006.16;5019841;27;102933;-69
2023/11/14 03:34:35;;;;;;;7.50;2.65;;;;;;;10.39;72.14;98004.53;5028073;27;102977;-69
2023/11/14 03:37:04;;;;;;;10.48;3.85;;;;;;;10.38;72.29;97996.78;5003818;27;103596;-69
2023/11/14 03:39:33;;;;;;;5.78;2.38;;;;;;;10.36;72.31;98017.28;5013596;27;103149;-69
2023/11/14 03:42:02;;;;;;;5.22;1.88;;;;;;;10.31;72.54;98025.78;5007733;27;102686;-70
2023/11/14 03:44:30;;;;;;;7.25;2.70;;;;;;;10.33;72.35;98029.03;5006080;27;104535;-69
2023/11/14 03:46:58;;;;;;;8.98;2.95;;;;;;;10.33;72.60;98034.34;5000815;27;103110;-69
2023/11/14 03:49:28;;;;;;;3.28;1.70;;;;;;;10.33;72.76;98046.75;5004281;27;102656;-69
2023/11/14 03:51:56;;;;;;;7.13;2.28;;;;;;;10.30;72.72;98055.88;5005916;28;102939;-70
2023/11/14 03:54:25;;;;;;;10.75;2.55;;;;;;;10.25;73.09;98058.25;5007636;27;103171;-69
2023/11/14 03:56:53;;;;;;;7.63;2.58;;;;;;;10.25;73.17;98068.84;5006425;28;103193;-69
2023/11/14 03:59:23;;;;;;;4.50;2.00;;;;;;;10.24;73.25;98073.28;5015669;27;102934;-70
2023/11/14 04:01:51;;;;;;;5.25;1.90;;;;;;;10.24;72.88;98064.53;5008690;27;103745;-70
2023/11/14 04:04:19;;;;;;;8.25;2.75;;;;;;;10.19;73.53;98069.56;5019892;27;103295;-69
2023/11/14 04:06:49;;;;;;;9.52;2.97;;;;;;;10.17;73.48;98053.88;5010375;27;103072;-70
2023/11/14 04:09:18;;;;;;;8.00;2.63;;;;;;;10.16;73.25;98048.75;4997842;27;102854;-69
2023/11/14 04:11:46;;;;;;;13.05;2.97;;;;;;;10.12;73.50;98049.09;5004303;28;102816;-69
2023/11/14 04:14:15;;;;;;;8.95;3.35;;;;;;;9.95;74.23;98047.63;5022487;27;103775;-69
2023/11/14 04:16:43;;;;;;;11.35;3.17;;;;;;;9.99;73.94;98048.91;5019711;27;103220;-69
2023/11/14 04:19:12;;;;;;;5.47;2.30;;;;;;;10.05;73.67;98060.63;5016111;27;103078;-69
2023/11/14 04:21:40;;;;;;;9.27;2.70;;;;;;;10.09;73.02;98062.69;5008885;27;103037;-69
2023/11/14 04:24:10;;;;;;;5.50;2.40;;;;;;;10.13;73.13;98056.03;5011297;27;102978;-69
2023/11/14 04:26:38;;;;;;;9.73;2.67;;;;;;;10.13;73.10;98056.03;5005158;27;103197;-69
2023/11/14 04:29:06;;;;;;;7.88;2.65;;;;;;;10.13;72.84;98063.97;5018559;27;102663;-69
2023/11/14 04:31:34;;;;;;;7.18;3.05;;;;;;;10.18;72.73;98047.56;5007870;27;102730;-69
2023/11/14 04:34:03;;;;;;;7.22;2.22;;;;;;;10.23;72.54;98062.88;5018749;27;103988;-70
2023/11/14 04:36:31;;;;;;;9.30;2.45;;;;;;;10.23;72.72;98054.94;5021846;27;103181;-70
2023/11/14 04:38:59;;;;;;;5.13;2.00;;;;;;;10.21;72.87;98059.63;5002585;27;102707;-69
2023/11/14 04:41:28;;;;;;;5.28;2.05;;;;;;;10.23;72.32;98057.59;5000442;27;103346;-69
2023/11/14 04:43:56;;;;;;;4.45;2.20;;;;;;;10.20;72.80;98066.72;5017679;27;103693;-69
2023/11/14 04:46:25;;;;;;;6.60;2.60;;;;;;;10.22;72.39;98058.63;5013460;27;103330;-70
2023/11/14 04:48:53;;;;;;;8.55;2.58;;;;;;;10.25;72.36;98052.97;5025571;27;103108;-70
2023/11/14 04:51:21;;;;;;;7.53;2.30;;;;;;;10.20;72.32;98048.19;5020004;27;102850;-70
2023/11/14 04:53:50;;;;;;;9.43;2.85;;;;;;;10.20;71.69;98052.69;5001615;27;104338;-69
2023/11/14 04:56:19;;;;;;;5.75;2.80;;;;;;;10.20;71.20;98050.03;5007468;28;103240;-70
2023/11/14 04:58:49;;;;;;;5.45;2.50;;;;;;;10.26;71.38;98049.31;5018646;27;103199;-69
2023/11/14 05:01:17;;;;;;;7.40;2.42;;;;;;;10.24;70.95;98057.41;5015543;27;103962;-69
2023/11/14 05:03:45;;;;;;;4.70;2.40;;;;;;;10.26;70.77;98049.31;5018233;27;103609;-70
2023/11/14 05:06:14;;;;;;;8.23;2.72;;;;;;;10.20;70.62;98065.91;5008921;27;104247;-70
2023/11/14 05:08:42;;;;;;;7.00;2.83;;;;;;;10.23;70.31;98076.97;5018958;27;102687;-70
2023/11/14 05:11:10;;;;;;;6.18;2.30;;;;;;;10.29;70.49;98088.63;5024298;27;102632;-70
2023/11/14 05:13:40;;;;;;;5.05;2.20;;;;;;;10.30;70.20;98092.94;5024749;27;103448;-70
2023/11/14 05:16:11;;;;;;;7.63;2.50;;;;;;;10.27;70.36;98077.41;5025105;27;103234;-70
2023/11/14 05:18:51;;;;;;;4.28;2.25;;;;;;;10.19;71.20;98080.97;5018883;27;102637;-70
2023/11/14 05:21:19;;;;;;;6.80;2.42;;;;;;;10.16;70.43;98091.91;5008058;27;102858;-71
2023/11/14 05:23:48;;;;;;;7.13;2.50;;;;;;;10.19;70.79;98086.28;5015065;27;103599;-69
2023/11/14 05:26:16;;;;;;;5.60;2.20;;;;;;;10.19;71.14;98082.78;5017811;27;103012;-69
2023/11/14 05:28:44;;;;;;;4.78;2.13;;;;;;;10.13;71.18;98081.69;5016898;27;102609;-69
2023/11/14 05:31:14;;;;;;;12.85;3.10;;;;;;;10.13;71.18;98089.63;5017490;27;104289;-69
2023/11/14 05:33:42;;;;;;;5.53;2.50;;;;;;;10.11;70.73;98087.16;5020439;27;104028;-69
2023/11/14 05:36:11;;;;;;;6.68;2.33;;;;;;;10.17;70.06;98092.75;5017108;27;102980;-69
2023/11/14 05:38:40;;;;;;;8.10;2.97;;;;;;;10.07;70.39;98101.78;5023064;27;102779;-69
2023/11/14 05:41:08;;;;;;;8.95;2.60;;;;;;;10.16;70.00;98104.31;5022253;27;102928;-70
2023/11/14 05:43:36;;;;;;;5.93;2.63;;;;;;;10.15;70.04;98097.38;5004230;28;103232;-70
2023/11/14 05:46:05;;;;;;;6.68;2.30;;;;;;;10.10;69.38;98108.50;5017995;27;103391;-70
2023/11/14 05:48:35;;;;;;;11.13;3.00;;;;;;;10.18;69.74;98107.59;5019483;27;102604;-70
2023/11/14 05:51:04;;;;;;;7.32;2.45;;;;;;;10.17;69.69;98108.63;5013711;27;103795;-70
2023/11/14 05:53:32;;;;;;;7.80;3.03;;;;;;;10.25;69.12;98105.91;4998544;27;103466;-71
2023/11/14 05:56:01;;;;;;;8.05;2.63;;;;;;;10.26;69.18;98094.31;5017255;27;103233;-71
2023/11/14 05:58:29;;;;;;;9.57;2.80;;;;;;;10.23;69.07;98092.00;5018989;27;102609;-70
2023/11/14 06:00:58;;;;;;;7.90;3.03;;;;;;;10.27;68.91;98103.88;5011049;27;102748;-71
2023/11/14 06:03:27;;;;;;;7.07;2.72;;;;;;;10.23;69.63;98098.13;5014591;27;103156;-70
2023/11/14 06:06:20;;;;;;;6.80;2.75;;;;;;;10.16;69.39;98102.50;5006627;27;103342;-71
2023/11/14 06:08:48;;;;;;;5.60;2.33;;;;;;;10.10;70.31;98114.63;5021649;27;102586;-71
2023/11/14 06:11:17;;;;;;;9.00;3.08;;;;;;;10.10;70.38;98114.63;5018534;27;103786;-70
2023/11/14 06:13:45;;;;;;;6.70;2.20;;;;;;;9.99;70.50;98117.69;5013714;27;103945;-71
2023/11/14 06:16:15;;;;;;;5.72;2.65;;;;;;;10.06;70.82;98113.34;4999559;27;103599;-68
2023/11/14 06:18:43;;;;;;;13.23;3.30;;;;;;;10.10;70.89;98097.91;5000628;27;102639;-66
2023/11/14 06:21:12;;;;;;;5.50;2.08;;;;;;;10.06;71.04;98092.19;5013956;27;102705;-66
2023/11/14 06:23:41;;;;;;;3.85;1.70;;;;;;;9.97;70.97;98103.84;5021129;27;104054;-66
2023/11/14 06:26:10;;;;;;;7.28;1.92;;;;;;;9.94;71.33;98102.38;5016625;27;103149;-66
2023/11/14 06:28:38;;;;;;;4.13;2.03;;;;;;;9.91;71.32;98104.53;5021983;27;102692;-66
2023/11/14 06:31:06;;;;;;;9.05;4.10;;;;;;;9.82;71.55;98108.25;5017035;27;103894;-66
2023/11/14 06:33:36;;;;;;;10.18;3.80;;;;;;;9.70;71.95;98108.66;5020159;27;103242;-67
2023/11/14 06:36:05;;;;;;;7.15;3.17;;;;;;;9.63;72.50;98110.38;5022419;27;103045;-67
2023/11/14 06:38:34;;;;;;;10.23;3.63;;;;;;;9.60;72.68;98118.66;5003875;27;103043;-70
2023/11/14 06:41:03;;;;;;;6.28;3.10;;;;;;;9.54;72.53;98119.38;5014238;27;102657;-68
2023/11/14 06:43:31;;;;;;;5.40;3.10;;;;;;;9.43;73.14;98121.41;5014415;27;103227;-67
2023/11/14 06:45:59;;;;;;;9.35;3.00;;;;;;;9.28;73.56;98141.66;5017800;27;103021;-67
2023/11/14 06:48:27;;;;;;;10.27;3.78;;;;;;;9.07;74.44;98140.44;5024250;27;102658;-68
2023/11/14 06:50:55;;;;;;;5.65;2.60;;;;;;;9.19;74.36;98142.69;5025716;27;102999;-67
2023/11/14 06:53:23;;;;;;;4.13;2.13;;;;;;;9.31;73.88;98129.91;5020866;27;103914;-67
2023/11/14 06:55:51;;;;;;;12.73;3.42;;;;;;;9.33;73.67;98122.63;5025144;27;103306;-67
2023/11/14 06:58:21;;;;;;;7.28;2.65;;;;;;;9.25;74.38;98132.25;5022004;27;102629;-67
2023/11/14 07:00:50;;;;;;;5.55;2.50;;;;;;;9.29;73.91;98156.53;5021992;27;103055;-67
2023/11/14 07:03:21;;;;;;;8.00;2.95;;;;;;;9.34;73.85;98151.53;5016979;27;103218;-67
2023/11/14 07:05:49;;;;;;;5.45;2.65;;;;;;;9.38;74.07;98149.34;5008292;27;103295;-67
2023/11/14 07:08:20;;;;;;;7.38;3.45;;;;;;;9.43;73.75;98153.16;5016172;27;102623;-67
2023/11/14 07:10:48;;;;;;;11.20;4.22;;;;;;;9.41;73.87;98160.41;4998046;27;102980;-67
2023/11/14 07:13:17;;;;;;;5.97;2.70;;;;;;;9.35;74.33;98176.94;5013778;27;103524;-68
2023/11/14 07:15:47;;;;;;;12.45;4.93;;;;;;;9.18;74.42;98178.03;5000007;27;103055;-67
2023/11/14 07:18:15;;;;;;;12.07;4.00;;;;;;;9.26;74.49;98181.47;5002116;27;102566;-68
2023/11/14 07:20:43;;;;;;;8.18;3.67;;;;;;;9.30;74.50;98187.22;5015056;27;102978;-68
2023/11/14 07:23:12;;;;;;;5.32;2.65;;;;;;;9.40;74.61;98192.31;4999925;27;103218;-68
2023/11/14 07:25:43;;;;;;;5.25;2.88;;;;;;;9.49;74.48;98183.34;5021749;27;103285;-68
2023/11/14 07:28:14;;;;;;;8.20;3.47;;;;;;;9.54;74.17;98182.81;5018610;27;102684;-68
2023/11/14 07:30:43;;;;;;;9.88;4.20;;;;;;;9.44;73.83;98183.84;5018156;27;102665;-67
2023/11/14 07:33:15;;;;;;;7.07;3.47;;;;;;;9.35;74.54;98174.31;5021706;27;103281;-67
2023/11/14 07:35:43;;;;;;;7.15;3.88;;;;;;;9.40;74.42;98161.41;5016361;27;103221;-67
2023/11/14 07:38:11;;;;;;;7.93;3.38;;;;;;;9.53;74.08;98149.44;5014102;27;102665;-67
2023/11/14 07:40:39;;;;;;;5.90;2.97;;;;;;;9.63;74.28;98165.91;5022161;27;103992;-67
2023/11/14 07:43:09;;;;;;;5.40;2.40;;;;;;;9.68;73.87;98174.16;5013693;27;103959;-67
2023/11/14 07:45:38;;;;;;;5.22;2.65;;;;;;;9.71;73.94;98165.03;5019657;27;103280;-67
2023/11/14 07:48:07;;;;;;;4.38;2.13;;;;;;;9.73;74.15;98163.88;5017881;27;102798;-67
2023/11/14 07:50:37;;;;;;;5.53;2.60;;;;;;;9.76;73.91;98175.88;5020184;27;102833;-69
2023/11/14 07:53:06;;;;;;;8.10;2.85;;;;;;;9.74;73.51;98194.56;5016352;27;103220;-68
2023/11/14 07:55:34;;;;;;;5.22;2.38;;;;;;;9.77;73.30;98204.81;5023168;27;104224;-69
2023/11/14 07:58:02;;;;;;;8.02;2.50;;;;;;;9.84;72.96;98198.81;5022368;27;102987;-67
2023/11/14 08:00:31;;;;;;;8.95;2.40;;;;;;;9.89;72.60;98177.94;5014450;27;102635;-67
2023/11/14 08:03:01;;;;;;;4.35;2.30;;;;;;;9.91;72.38;98174.13;5016755;27;103205;-67
2023/11/14 08:05:43;;;;;;;6.05;2.00;;;;;;;10.00;72.39;98177.53;5020439;27;103063;-68
2023/11/14 08:08:13;;;;;;;4.28;1.92;;;;;;;10.04;71.81;98178.03;5020838;27;103778;-68
2023/11/14 08:10:42;;;;;;;6.05;1.88;;;;;;;10.11;71.39;98181.59;5022449;27;102686;-66
2023/11/14 08:13:10;;;;;;;4.55;2.00;;;;;;;10.16;71.45;98176.59;5004743;28;103247;-66
2023/11/14 08:15:38;;;;;;;4.65;1.88;;;;;;;10.20;71.03;98192.94;5019692;27;104725;-66
2023/11/14 08:18:12;;;;;;;7.40;2.08;;;;;;;10.29;70.51;98207.75;5025387;27;102682;-67
2023/11/14 08:20:42;;;;;;;4.55;1.88;;;;;;;10.39;70.48;98215.50;5019348;27;103811;-67
2023/11/14 08:23:12;;;;;;;4.93;1.92;;;;;;;10.45;70.08;98220.03;5019973;27;104047;-68
2023/11/14 08:25:40;;;;;;;2.70;1.50;;;;;;;10.50;69.81;98232.75;5018194;27;103251;-67
2023/11/14 08:28:11;;;;;;;4.82;2.13;;;;;;;10.57;69.60;98245.09;5022973;27;102853;-68
2023/11/14 08:30:40;;;;;;;7.10;2.03;;;;;;;10.59;69.61;98239.63;5007984;28;102855;-68
2023/11/14 08:33:10;;;;;;;5.57;2.33;;;;;;;10.66;69.46;98224.66;5015770;27;103252;-68
2023/11/14 08:35:38;;;;;;;4.68;2.17;;;;;;;10.68;69.75;98219.19;5017816;27;103216;-68
2023/11/14 08:38:08;;;;;;;4.90;1.77;;;;;;;10.72;69.62;98202.75;5005761;27;102664;-68
2023/11/14 08:40:48;;;;;;;6.38;2.10;;;;;;;10.71;69.13;98214.34;5021537;27;102636;-68
2023/11/14 08:43:16;;;;;;;6.55;1.77;;;;;;;10.71;69.59;98222.28;5014703;27;103453;-68
2023/11/14 08:45:44;;;;;;;6.50;2.10;;;;;;;10.68;69.11;98190.88;5003078;28;103186;-68
2023/11/14 08:48:12;;;;;;;3.85;2.05;;;;;;;10.69;68.29;98191.69;5019869;27;102773;-68
2023/11/14 08:50:40;;;;;;;6.63;2.40;;;;;;;10.76;67.93;98189.97;5004181;27;102672;-68
2023/11/14 08:53:10;;;;;;;3.60;1.80;;;;;;;10.76;68.01;98188.13;5003099;27;103489;-67
2023/11/14 08:55:38;;;;;;;6.00;1.83;;;;;;;10.76;67.72;98182.03;5028849;27;103251;-69
2023/11/14 08:58:06;;;;;;;3.97;1.88;;;;;;;10.87;67.23;98191.34;5011183;27;102660;-69
2023/11/14 09:00:35;;;;;;;4.57;1.85;;;;;;;10.93;67.53;98174.72;5007176;27;102701;-68
2023/11/14 09:03:06;;;;;;;8.18;2.10;;;;;;;10.98;67.25;98193.53;5024075;27;103299;-68
2023/11/14 09:05:34;;;;;;;4.35;1.88;;;;;;;10.94;67.46;98203.69;5019120;27;103344;-68
2023/11/14 09:08:03;;;;;;;3.50;1.60;;;;;;;11.06;67.65;98209.34;5018634;27;102617;-67
2023/11/14 09:10:33;;;;;;;2.50;1.73;;;;;;;10.95;67.83;98209.78;5017307;27;102850;-68
2023/11/14 09:13:04;;;;;;;3.22;1.60;;;;;;;11.05;68.47;98199.75;5007799;27;104354;-68
2023/11/14 09:15:32;;;;;;;5.68;2.28;;;;;;;11.00;68.45;98188.06;5013743;27;103784;-68
2023/11/14 09:18:00;;;;;;;3.20;1.55;;;;;;;11.02;68.48;98178.91;5010667;27;102719;-68
2023/11/14 09:20:28;;;;;;;2.45;1.40;;;;;;;10.99;69.03;98168.69;5006761;28;102752;-68
2023/11/14 09:22:56;;;;;;;4.38;1.45;;;;;;;10.95;69.09;98159.44;5018826;27;103185;-68
2023/11/14 09:25:28;;;;;;;3.10;1.50;;;;;;;10.91;68.42;98158.16;5017742;27;103297;-68
2023/11/14 09:27:59;;;;;;;5.03;1.67;;;;;;;10.89;68.88;98160.19;5006170;27;102645;-68
2023/11/14 09:30:28;;;;;;;3.33;1.80;;;;;;;11.03;68.79;98151.41;5019716;27;102669;-68
2023/11/14 09:32:56;;;;;;;3.70;1.50;;;;;;;11.05;68.45;98173.25;5023292;27;103661;-68
2023/11/14 09:35:24;;;;;;;4.03;1.70;;;;;;;11.01;67.71;98187.06;5023074;27;103282;-68
2023/11/14 09:37:52;;;;;;;3.75;1.70;;;;;;;10.93;67.74;98180.03;5004969;27;103769;-68
2023/11/14 09:40:22;;;;;;;3.30;1.58;;;;;;;10.95;66.89;98172.69;5022516;27;102656;-68
2023/11/14 09:42:50;;;;;;;3.72;1.70;;;;;;;11.03;67.31;98185.03;5018202;27;103091;-67
2023/11/14 09:45:20;;;;;;;4.05;1.40;;;;;;;11.00;67.11;98202.13;5002381;28;103137;-67
2023/11/14 09:47:49;;;;;;;3.13;1.40;;;;;;;11.10;67.24;98207.97;5018304;27;102738;-67
2023/11/14 09:50:19;;;;;;;2.58;1.50;;;;;;;11.07;66.60;98205.69;5021842;27;102704;-66
2023/11/14 09:52:47;;;;;;;4.93;1.70;;;;;;;11.03;66.77;98199.13;5012156;27;103282;-67
2023/11/14 09:55:16;;;;;;;4.70;1.70;;;;;;;10.90;65.97;98189.16;5025059;27;103165;-67
2023/11/14 09:57:46;;;;;;;3.90;1.40;;;;;;;11.03;66.43;98188.50;5004195;27;102744;-67
2023/11/14 10:00:18;;;;;;;3.30;1.52;;;;;;;11.06;66.05;98206.69;5021635;27;103197;-67
2023/11/14 10:02:46;;;;;;;3.80;1.50;;;;;;;11.09;66.33;98185.09;5011408;27;104451;-67
2023/11/14 10:05:16;;;;;;;5.68;1.77;;;;;;;11.00;65.67;98188.06;5001993;27;103215;-66
2023/11/14 10:07:45;;;;;;;4.45;1.70;;;;;;;10.99;65.52;98216.38;5015410;27;102922;-67
2023/11/14 10:10:13;;;;;;;4.05;1.60;;;;;;;11.04;65.85;98205.22;5009910;27;102860;-66
2023/11/14 10:12:41;;;;;;;6.28;1.60;;;;;;;11.04;65.11;98199.94;5008593;27;103271;-67
2023/11/14 10:15:10;;;;;;;5.35;1.83;;;;;;;11.10;65.73;98207.97;5014413;27;103311;-67
2023/11/14 10:17:47;;;;;;;3.22;1.67;;;;;;;11.14;65.36;98204.97;5018231;27;102723;-67
2023/11/14 10:20:18;;;;;;;6.45;1.48;;;;;;;11.09;65.25;98198.38;5005237;27;102739;-67
2023/11/14 10:22:54;;;;;;;7.22;2.10;;;;;;;11.11;65.62;98201.66;5013486;27;103159;-67
2023/11/14 10:25:33;;;;;;;4.65;1.60;;;;;;;11.07;65.34;98171.25;5022860;27;103194;-67
2023/11/14 10:28:06;;;;;;;4.57;1.73;;;;;;;11.16;65.67;98185.22;5017687;27;102818;-67
2023/11/14 10:30:58;;;;;;;5.22;1.60;;;;;;;11.15;64.80;98185.38;5018488;27;102753;-67
2023/11/14 10:33:45;;;;;;;4.18;1.73;;;;;;;11.14;64.67;98183.75;4999245;28;103433;-66
2023/11/14 10:36:13;;;;;;;6.72;2.08;;;;;;;11.10;64.90;98184.09;5020945;27;103296;-66
2023/11/14 10:38:41;;;;;;;6.75;1.98;;;;;;;11.10;64.73;98173.50;5020208;27;102591;-66
2023/11/14 10:41:09;;;;;;;6.35;2.13;;;;;;;11.19;64.90;98176.09;5003752;27;102759;-66
2023/11/14 10:43:38;;;;;;;3.90;1.50;;;;;;;11.24;64.49;98182.47;5015984;27;103256;-67
2023/11/14 10:46:08;;;;;;;5.18;1.70;;;;;;;11.29;63.90;98176.59;5001514;27;102946;-67
2023/11/14 10:48:36;;;;;;;3.95;2.00;;;;;;;11.27;63.93;98186.56;5006784;27;102788;-67
2023/11/14 10:51:07;;;;;;;5.50;1.77;;;;;;;11.37;64.17;98196.88;5016867;27;102678;-66
2023/11/14 10:53:36;;;;;;;4.60;1.70;;;;;;;11.43;64.19;98191.66;5015232;27;103353;-67
2023/11/14 10:56:11;;;;;;;4.63;1.85;;;;;;;11.42;64.30;98187.38;5023675;27;103253;-67
2023/11/14 10:58:40;;;;;;;6.65;1.75;;;;;;;11.43;64.07;98190.84;5022147;27;102872;-67
2023/11/14 11:01:11;;;;;;;6.70;2.10;;;;;;;11.51;63.94;98177.47;5019439;27;102954;-67
2023/11/14 11:03:40;;;;;;;4.18;1.65;;;;;;;11.58;64.53;98186.31;5007921;27;104036;-66
2023/11/14 11:06:10;;;;;;;2.55;1.45;;;;;;;11.52;64.36;98184.41;5018697;27;103435;-67
2023/11/14 11:08:39;;;;;;;5.15;2.00;;;;;;;11.54;64.04;98181.56;5014992;27;102728;-65
2023/11/14 11:11:10;;;;;;;5.15;2.42;;;;;;;11.57;63.79;98162.66;5016441;27;102684;-66
2023/11/14 11:13:40;;;;;;;5.93;1.90;;;;;;;11.49;63.64;98166.22;5003806;27;103408;-67
2023/11/14 11:16:08;;;;;;;2.60;1.40;;;;;;;11.47;64.51;98162.13;5005166;27;103098;-67
2023/11/14 11:18:38;;;;;;;5.10;1.63;;;;;;;11.62;64.57;98149.66;5013528;27;103008;-67
2023/11/14 11:21:12;;;;;;;3.80;1.70;;;;;;;11.58;63.45;98127.13;5016881;27;102831;-67
2023/11/14 11:24:09;;;;;;;4.60;1.88;;;;;;;11.71;63.50;98111.38;4998620;27;103238;-67
2023/11/14 11:27:17;;;;;;;4.60;1.80;;;;;;;11.65;63.47;98096.22;4999592;27;104177;-67
2023/11/14 11:29:51;;;;;;;3.80;1.83;;;;;;;11.68;63.38;98074.59;5025910;27;102621;-67
2023/11/14 11:32:27;;;;;;;4.43;1.63;;;;;;;11.80;63.17;98087.34;4998808;27;102829;-67
2023/11/14 11:35:25;;;;;;;4.78;1.90;;;;;;;11.83;63.45;98063.94;5019215;27;103337;-67